Latest Coastal Weather Observations for Cape Willoughby

IDS60701

Issued at 3:41 pm CDT Saturday 20 December 2014 (issued every 10 minutes, with the page automatically refreshed every 10 minutes)

About coastal observations | Map of coastal stations | Coastal observations for SA | Marine services | Other Formats
Station Details ID: 022803 Name: CAPE WILLOUGHBY Lat: -35.84 Lon: 138.13 Height: 55.0 m
Data from the previous 72 hours. | See also: Recent months at Cape Willoughby
Date/Time
CDT
Temp

°C
Wind Pressure Rain
since 9am
mm
Weather Cloud Vis
km
Sea
Height
m
Swell
Dir
 
Speed
knots
Gust
knots
hPa Trend Height
m
Period
s
Dir
20/03:30pm 19.6 SE 10 13 1016.7 - 0.0 - - - - - - -
20/03:00pm 19.4 SE 10 12 1017.1 - 0.0 - - - - - - -
20/02:30pm 19.3 ESE 9 12 1017.6 - 0.0 - - - - - - -
20/02:00pm 19.3 ESE 9 11 1017.9 - 0.0 - - - - - - -
20/01:30pm 19.5 ESE 9 12 1018.4 - 0.0 - - - - - - -
20/01:00pm 19.6 ESE 9 12 1018.9 - 0.0 - - - - - - -
20/12:30pm 19.7 ESE 9 12 1019.1 - 0.0 - - - - - - -
20/12:00pm 19.3 ESE 10 13 1019.3 - 0.0 - - - - - - -
20/11:30am 19.4 ESE 8 11 1019.5 - 0.0 - - - - - - -
20/11:00am 19.5 ESE 7 11 1019.7 - 0.0 - - - - - - -
20/10:30am 19.2 ESE 6 9 1019.9 - 0.0 - - - - - - -
20/10:00am 18.9 ESE 7 9 1020.0 - 0.0 - - - - - - -
20/09:30am 18.4 E 7 8 1020.4 - 0.0 - - - - - - -
20/09:00am 17.6 E 6 8 1020.5 - 0.0 - - - - - - -
20/08:30am 17.3 E 5 9 1020.0 - 0.0 - - - - - - -
20/08:00am 17.5 ENE 5 7 1019.9 - 0.0 - - - - - - -
20/07:30am 16.8 E 4 7 1019.6 - 0.0 - - - - - - -
20/07:00am 15.9 E 4 6 1019.4 - 0.0 - - - - - - -
20/06:30am 15.6 ENE 4 6 1019.3 - 0.0 - - - - - - -
20/06:00am 15.3 ESE 5 7 1018.9 - 0.0 - - - - - - -
20/05:30am 15.2 ESE 6 8 1018.8 - 0.0 - - - - - - -
20/05:00am 15.2 SE 7 9 1018.4 - 0.0 - - - - - - -
20/04:30am 15.3 ESE 7 10 1018.2 - 0.0 - - - - - - -
20/04:00am 15.2 SE 8 9 1018.3 - 0.0 - - - - - - -
20/03:30am 15.3 SE 8 11 1018.4 - 0.0 - - - - - - -
20/03:00am 15.3 SE 7 9 1018.7 - 0.0 - - - - - - -
20/02:30am 15.6 SE 7 11 1019.0 - 0.0 - - - - - - -
20/02:00am 15.6 SSE 8 12 1019.5 - 0.0 - - - - - - -
20/01:30am 15.7 SE 8 11 1019.9 - 0.0 - - - - - - -
20/01:00am 15.8 SSE 8 12 1020.4 - 0.0 - - - - - - -
20/12:30am 15.9 SSE 8 12 1020.5 - 0.0 - - - - - - -
20/12:00am 16.0 SSE 8 14 1020.8 - 0.0 - - - - - - -
 
Date/Time
CDT
Temp

°C
Wind Pressure Rain
since 9am
mm
Weather Cloud Vis
km
Sea
Height
m
Swell
Dir
 
Speed
knots
Gust
knots
hPa Trend Height
m
Period
s
Dir
19/11:30pm 16.0 SSE 8 12 1021.0 - 0.0 - - - - - - -
19/11:00pm 16.0 S 11 13 1021.2 - 0.0 - - - - - - -
19/10:30pm 15.9 SSE 10 13 1021.2 - 0.0 - - - - - - -
19/10:00pm 16.1 S 11 14 1021.3 - 0.0 - - - - - - -
19/09:30pm 16.0 S 11 14 1021.3 - 0.0 - - - - - - -
19/09:00pm 15.9 S 11 15 1021.1 - 0.0 - - - - - - -
19/08:30pm 16.1 S 11 15 1021.0 - 0.0 - - - - - - -
19/08:00pm 16.2 S 11 15 1021.1 - 0.0 - - - - - - -
19/07:30pm 16.3 S 11 15 1021.1 - 0.0 - - - - - - -
19/07:00pm 16.3 S 12 16 1020.9 - 0.0 - - - - - - -
19/06:30pm 16.5 S 11 15 1020.8 - 0.0 - - - - - - -
19/06:00pm 17.0 S 12 16 1020.6 - 0.0 - - - - - - -
19/05:30pm 16.8 S 11 15 1020.5 - 0.0 - - - - - - -
19/05:00pm 17.1 S 10 15 1020.5 - 0.0 - - - - - - -
19/04:30pm 16.9 S 11 14 1020.6 - 0.0 - - - - - - -
19/04:00pm 17.2 S 12 15 1020.7 - 0.0 - - - - - - -
19/03:30pm 17.2 S 12 15 1020.7 - 0.0 - - - - - - -
19/03:00pm 17.1 S 12 16 1020.9 - 0.0 - - - - - - -
19/02:30pm 17.2 S 12 15 1020.9 - 0.0 - - - - - - -
19/02:00pm 16.9 S 11 15 1020.9 - 0.0 - - - - - - -
19/01:30pm 17.1 S 13 17 1020.9 - 0.0 - - - - - - -
19/01:00pm 17.0 S 13 17 1021.0 - 0.0 - - - - - - -
19/12:30pm 16.9 S 12 15 1021.1 - 0.0 - - - - - - -
19/12:00pm 17.3 S 11 15 1021.1 - 0.0 - - - - - - -
19/11:30am 17.0 S 10 13 1021.3 - 0.0 - - - - - - -
19/11:00am 16.8 S 10 14 1021.3 - 0.0 - - - - - - -
19/10:30am 16.8 S 9 11 1021.2 - 0.0 - - - - - - -
19/10:00am 16.7 S 8 11 1021.0 - 0.0 - - - - - - -
19/09:30am 16.4 S 9 11 1020.7 - 0.0 - - - - - - -
19/09:00am 16.3 S 9 12 1020.4 - 0.4 - - - - - - -
19/08:30am 16.1 S 8 12 1019.9 - 0.4 - - - - - - -
19/08:00am 16.1 S 8 12 1019.5 - 0.4 - - - - - - -
19/07:30am 15.4 S 11 14 1019.0 - 0.4 - - - - - - -
19/07:00am 15.3 SSW 10 13 1018.7 - 0.4 - - - - - - -
19/06:30am 14.3 SW 6 9 1018.4 - 0.4 - - - - - - -
19/06:00am 14.9 SSW 9 12 1018.2 - 0.4 - - - - - - -
19/05:30am 15.0 SSW 9 12 1018.1 - 0.4 - - - - - - -
19/05:00am 15.0 SSW 7 11 1018.1 - 0.4 - - - - - - -
19/04:30am 15.2 SSW 8 13 1017.7 - 0.4 - - - - - - -
19/04:00am 14.9 SSW 11 13 1017.6 - 0.4 - - - - - - -
19/03:30am 14.9 SSW 11 15 1017.4 - 0.4 - - - - - - -
19/03:00am 15.0 SSW 12 16 1017.5 - 0.4 - - - - - - -
19/02:30am 15.1 SSW 12 17 1017.6 - 0.4 - - - - - - -
19/02:00am 15.3 S 9 13 1017.7 - 0.4 - - - - - - -
19/01:30am 15.2 SSW 13 17 1017.9 - 0.4 - - - - - - -
19/01:00am 15.4 S 12 15 1017.9 - 0.4 - - - - - - -
19/12:30am 15.4 SSW 12 17 1017.7 - 0.4 - - - - - - -
19/12:00am 15.3 S 10 16 1017.6 - 0.4 - - - - - - -
 
Date/Time
CDT
Temp

°C
Wind Pressure Rain
since 9am
mm
Weather Cloud Vis
km
Sea
Height
m
Swell
Dir
 
Speed
knots
Gust
knots
hPa Trend Height
m
Period
s
Dir
18/11:30pm 15.8 SSW 11 15 1017.4 - 0.4 - - - - - - -
18/11:00pm 15.6 S 10 14 1017.3 - 0.4 - - - - - - -
18/10:30pm 15.8 S 12 17 1017.3 - 0.4 - - - - - - -
18/10:00pm 16.0 SSW 14 17 1017.1 - 0.4 - - - - - - -
18/09:30pm 15.7 SSW 14 17 1016.7 - 0.4 - - - - - - -
18/09:00pm 15.7 SSW 15 20 1016.4 - 0.4 - - - - - - -
18/08:30pm 15.9 SSW 15 20 1016.2 - 0.4 - - - - - - -
18/08:00pm 16.0 SSW 13 19 1016.1 - 0.4 - - - - - - -
18/07:30pm 16.2 SSW 17 23 1015.3 - 0.4 - - - - - - -
18/07:00pm 16.6 SSW 15 19 1015.1 - 0.4 - - - - - - -
18/06:30pm 17.3 SW 16 20 1014.8 - 0.4 - - - - - - -
18/06:00pm 17.4 SSW 18 25 1014.5 - 0.4 - - - - - - -
18/05:30pm 17.5 SW 19 24 1014.2 - 0.4 - - - - - - -
18/05:00pm 17.8 SW 19 24 1013.9 - 0.4 - - - - - - -
18/04:30pm 18.1 SW 21 27 1013.7 - 0.4 - - - - - - -
18/04:00pm 18.2 SW 22 28 1013.4 - 0.4 - - - - - - -
18/03:30pm 18.3 SSW 22 27 1012.9 - 0.4 - - - - - - -
18/03:00pm 18.8 SW 22 27 1012.7 - 0.4 - - - - - - -
18/02:30pm 18.4 SW 22 29 1012.3 - 0.4 - - - - - - -
18/02:00pm 17.9 SSW 22 28 1012.3 - 0.4 - - - - - - -
18/01:30pm 18.9 SW 21 27 1012.0 - 0.4 - - - - - - -
18/01:00pm 19.1 SW 19 27 1011.9 - 0.4 - - - - - - -
18/12:30pm 19.0 SW 21 29 1011.7 - 0.4 - - - - - - -
18/12:00pm 18.7 SW 18 23 1011.7 - 0.4 Recent precip. - - - - - -
18/11:30am 18.1 SW 19 25 1011.3 - 0.4 - - - - - - -
18/11:10am 17.8 SW 18 29 1011.1 - 0.2 - - - - - - -
18/11:00am 17.2 WSW 14 21 1011.1 - 0.2 - - - - - - -
18/10:37am 16.0 WSW 20 31 1011.0 - 0.2 - - - - - - -
18/10:30am 16.0 WSW 21 27 1011.0 - 0.2 - - - - - - -
18/10:10am 18.9 SW 18 33 1010.2 - 0.0 - - - - - - -
18/10:00am 19.4 WSW 17 26 1010.5 - 0.0 - - - - - - -
18/09:39am 19.1 WSW 18 29 1010.1 - 0.0 - - - - - - -
18/09:30am 19.9 W 16 23 1010.1 - 0.0 - - - - - - -
18/09:00am 18.6 WNW 17 21 1009.7 - 0.0 - - - - - - -
18/08:30am 17.7 WNW 15 20 1009.6 - 0.0 - - - - - - -
18/08:00am 17.0 WNW 14 19 1009.3 - 0.0 - - - - - - -
18/07:30am 16.8 WNW 14 19 1009.2 - 0.0 - - - - - - -
18/07:00am 15.7 WNW 12 15 1008.8 - 0.0 - - - - - - -
18/06:30am 14.7 WNW 12 13 1008.6 - 0.0 - - - - - - -
18/06:00am 14.0 WNW 11 13 1008.3 - 0.0 - - - - - - -
18/05:30am 13.6 NW 13 14 1008.0 - 0.0 - - - - - - -
18/05:00am 13.5 NW 10 11 1007.8 - 0.0 - - - - - - -
18/04:30am 13.4 NW 11 12 1007.6 - 0.0 - - - - - - -
18/04:00am 13.3 NW 12 13 1007.3 - 0.0 - - - - - - -
18/03:30am 13.6 WNW 12 13 1007.4 - 0.0 - - - - - - -
18/03:00am 13.5 WNW 12 13 1007.4 - 0.0 - - - - - - -
18/02:30am 13.3 NW 11 12 1007.7 - 0.0 - - - - - - -
18/02:00am 13.6 WNW 12 13 1007.6 - 0.0 - - - - - - -
18/01:30am 13.9 WNW 12 13 1007.7 - 0.0 - - - - - - -
18/01:00am 14.1 WNW 11 12 1007.9 - 0.0 - - - - - - -
18/12:30am 14.6 WNW 9 10 1008.2 - 0.0 - - - - - - -
18/12:00am 14.8 WNW 8 9 1008.6 - 0.0 - - - - - - -
 
Date/Time
CDT
Temp

°C
Wind Pressure Rain
since 9am
mm
Weather Cloud Vis
km
Sea
Height
m
Swell
Dir
 
Speed
knots
Gust
knots
hPa Trend Height
m
Period
s
Dir
17/11:30pm 14.8 WNW 6 7 1008.7 - 0.0 - - - - - - -
17/11:00pm 15.0 W 4 5 1008.9 - 0.0 - - - - - - -
17/10:30pm 15.0 WSW 4 4 1008.9 - 0.0 - - - - - - -
17/10:00pm 15.2 WSW 4 4 1008.8 - 0.0 - - - - - - -
17/09:30pm 15.9 SW 7 9 1008.8 - 0.0 - - - - - - -
17/09:00pm 16.1 SSW 9 11 1008.6 - 0.0 - - - - - - -
17/08:30pm 16.3 S 6 9 1008.5 - 0.0 - - - - - - -
17/08:00pm 16.2 S 8 11 1008.4 - 0.0 - - - - - - -
17/07:30pm 16.3 S 6 10 1008.4 - 0.0 - - - - - - -
17/07:00pm 17.0 S 7 9 1008.1 - 0.0 - - - - - - -
17/06:30pm 17.2 S 8 11 1008.2 - 0.0 - - - - - - -
17/06:00pm 17.1 S 6 9 1008.2 - 0.0 - - - - - - -
17/05:30pm 17.1 S 6 8 1008.3 - 0.0 - - - - - - -
17/05:00pm 17.6 S 6 8 1008.5 - 0.0 - - - - - - -
17/04:30pm 16.9 S 7 10 1008.8 - 0.0 - - - - - - -
17/04:00pm 17.6 S 9 11 1008.6 - 0.0 - - - - - - -

Other Formats:

Comma delimited format used in spreadsheet applications
http://www.bom.gov.au/fwo/IDS60701/IDS60701.94822.axf

JavaScript Object Notation format (JSON) in row-major order
http://www.bom.gov.au/fwo/IDS60701/IDS60701.94822.json